Time;durP1;ratioP1;P1;durP2;ratioP2;P2;SDS_P1;SDS_P2;PMS_P1;PMS_P2;Temp;Humidity;BMP_temperature;BMP_pressure;BME280_temperature;BME280_humidity;BME280_pressure;Samples;Min_cycle;Max_cycle;Signal;HPM_P1;HPM_P2
2022/10/19 03:24:45;;;;;;;10.85;9.75;;;;;;;15.98;79.75;100741.69;1087598;54;21817;-84
2022/10/19 03:25:53;;;;;;;9.88;8.65;;;;;;;15.78;80.57;100743.78;1088051;54;20050;-84
2022/10/19 03:26:57;;;;;;;10.13;9.00;;;;;;;15.66;81.71;100745.91;1088100;54;20035;-83
2022/10/19 03:27:58;;;;;;;11.85;9.93;;;;;;;15.54;82.28;100739.09;1088055;54;20022;-84
2022/10/19 03:29:03;;;;;;;12.27;10.35;;;;;;;15.50;82.71;100748.50;1087979;54;20733;-85
2022/10/19 03:30:05;;;;;;;11.98;10.23;;;;;;;15.36;83.39;100745.41;1087941;54;20023;-87
2022/10/19 03:31:09;;;;;;;10.65;9.48;;;;;;;15.30;83.44;100746.06;1087840;54;20026;-84
2022/10/19 03:32:13;;;;;;;12.15;10.20;;;;;;;15.29;83.80;100747.06;1087905;54;20062;-85
2022/10/19 03:33:17;;;;;;;12.43;11.00;;;;;;;15.17;84.34;100743.75;1087916;54;20035;-84
2022/10/19 03:34:20;;;;;;;12.00;10.68;;;;;;;15.17;84.44;100751.00;1088033;54;20034;-83
2022/10/19 03:35:24;;;;;;;13.38;10.40;;;;;;;15.17;84.56;100740.25;1088057;54;20037;-83
2022/10/19 03:36:31;;;;;;;10.25;8.55;;;;;;;15.19;84.04;100743.63;1087997;54;20655;-85
2022/10/19 03:37:33;;;;;;;10.20;8.85;;;;;;;15.19;84.41;100751.69;1087891;54;20745;-85
2022/10/19 03:38:37;;;;;;;13.30;11.02;;;;;;;14.99;85.10;100751.91;1087874;54;20041;-82
2022/10/19 03:39:41;;;;;;;18.52;13.43;;;;;;;14.89;86.22;100753.84;1087901;54;20037;-81
2022/10/19 03:40:46;;;;;;;13.60;11.90;;;;;;;14.83;86.68;100749.91;1088005;54;20046;-84
2022/10/19 03:41:50;;;;;;;14.68;12.32;;;;;;;14.80;87.02;100755.59;1087920;54;20785;-85
2022/10/19 03:42:52;;;;;;;14.25;11.95;;;;;;;14.76;87.08;100754.22;1088000;54;20041;-86
2022/10/19 03:43:57;;;;;;;12.88;11.45;;;;;;;14.75;87.40;100753.38;1088306;39;20684;-84
2022/10/19 03:45:04;;;;;;;13.75;10.93;;;;;;;14.70;87.60;100752.13;1088020;54;20038;-83
2022/10/19 03:46:06;;;;;;;12.68;11.30;;;;;;;14.72;87.50;100760.91;1087909;54;20705;-84
2022/10/19 03:47:10;;;;;;;14.80;11.02;;;;;;;14.71;87.64;100754.69;1087953;54;20021;-84
2022/10/19 03:48:12;;;;;;;11.85;9.80;;;;;;;14.74;87.32;100758.91;1087995;54;20784;-83
2022/10/19 03:49:16;;;;;;;11.20;9.60;;;;;;;14.73;87.14;100755.41;1087990;54;20032;-85
2022/10/19 03:50:17;;;;;;;11.52;9.38;;;;;;;14.79;87.06;100762.84;1088133;54;20038;-84
2022/10/19 03:51:23;;;;;;;11.00;9.45;;;;;;;14.86;86.94;100764.91;1088005;54;20023;-84
2022/10/19 03:52:25;;;;;;;11.18;9.35;;;;;;;14.88;86.76;100765.59;1087995;54;20031;-85
2022/10/19 03:53:31;;;;;;;22.23;11.77;;;;;;;14.85;86.96;100765.91;1087935;54;20030;-84
2022/10/19 03:54:32;;;;;;;14.93;10.60;;;;;;;14.85;86.80;100771.28;1088097;46;20070;-84
2022/10/19 03:55:37;;;;;;;15.68;12.73;;;;;;;14.75;87.63;100766.81;1087979;54;20126;-84
2022/10/19 03:56:42;;;;;;;20.10;13.30;;;;;;;14.59;88.91;100769.34;1087910;54;20039;-84
2022/10/19 03:57:47;;;;;;;14.18;12.57;;;;;;;14.54;89.00;100764.41;1087884;54;20049;-84
2022/10/19 03:58:50;;;;;;;16.88;13.13;;;;;;;14.47;89.88;100769.56;1087928;54;20050;-85
2022/10/19 03:59:55;;;;;;;16.67;13.18;;;;;;;14.46;89.76;100762.47;1087896;54;20042;-85
2022/10/19 04:00:56;;;;;;;17.77;14.02;;;;;;;14.40;90.38;100768.50;1087968;54;20035;-85
2022/10/19 04:02:01;;;;;;;16.65;13.23;;;;;;;14.39;91.07;100763.28;1088123;54;20015;-84
2022/10/19 04:03:04;;;;;;;17.65;13.85;;;;;;;14.36;91.04;100761.72;1088028;54;20975;-83
2022/10/19 04:04:31;;;;;;;16.45;13.20;;;;;;;14.22;92.52;100760.38;1088091;54;20014;-86
2022/10/19 04:05:42;;;;;;;16.73;14.25;;;;;;;14.16;93.27;100766.38;1088148;54;20018;-85
2022/10/19 04:06:59;;;;;;;16.02;13.43;;;;;;;14.22;92.85;100767.63;1088155;54;20023;-86
2022/10/19 04:08:17;;;;;;;16.10;13.38;;;;;;;14.20;93.26;100765.91;1087828;54;20030;-84
2022/10/19 04:09:33;;;;;;;15.52;13.07;;;;;;;14.25;93.02;100767.31;1089433;47;20115;-82
2022/10/19 04:10:52;;;;;;;15.55;12.48;;;;;;;14.27;93.00;100768.00;1087585;54;20927;-83
2022/10/19 04:12:13;;;;;;;17.02;13.20;;;;;;;14.29;92.91;100771.38;1087996;54;20010;-82
2022/10/19 04:13:24;;;;;;;14.15;11.48;;;;;;;14.33;92.43;100767.41;1087882;54;20061;-84
2022/10/19 04:14:39;;;;;;;13.98;10.73;;;;;;;14.41;92.10;100772.00;1087939;54;20032;-84
2022/10/19 04:15:50;;;;;;;14.38;12.40;;;;;;;14.35;92.18;100777.00;1087488;54;20027;-83
2022/10/19 04:17:03;;;;;;;15.18;11.98;;;;;;;14.35;92.21;100765.41;1087810;54;20046;-83
2022/10/19 04:18:14;;;;;;;14.13;12.07;;;;;;;14.39;91.83;100766.78;1087972;47;20042;-82
2022/10/19 04:19:19;;;;;;;14.05;11.77;;;;;;;14.40;91.83;100760.41;1087883;54;20730;-86
2022/10/19 04:20:21;;;;;;;14.45;12.32;;;;;;;14.38;92.17;100765.09;1087823;54;20023;-83
2022/10/19 04:21:27;;;;;;;14.50;11.43;;;;;;;14.43;92.04;100767.34;1088026;47;20037;-82
2022/10/19 04:22:29;;;;;;;13.57;11.73;;;;;;;14.44;91.75;100769.88;1087879;54;20035;-81
2022/10/19 04:23:35;;;;;;;11.90;10.55;;;;;;;14.50;91.77;100776.47;1087683;54;20019;-81
2022/10/19 04:24:36;;;;;;;15.18;10.13;;;;;;;14.58;91.16;100764.97;1087788;54;20057;-81
2022/10/19 04:25:41;;;;;;;12.38;10.57;;;;;;;14.61;90.76;100762.81;1086985;54;20018;-82
2022/10/19 04:26:44;;;;;;;16.38;12.15;;;;;;;14.58;91.10;100770.34;1087808;54;20027;-84
2022/10/19 04:27:51;;;;;;;17.55;13.32;;;;;;;14.49;91.34;100758.66;1087716;54;20034;-84
2022/10/19 04:28:53;;;;;;;16.27;12.93;;;;;;;14.42;92.00;100771.00;1087787;54;20018;-82
2022/10/19 04:29:57;;;;;;;15.57;11.57;;;;;;;14.40;92.02;100765.78;1087737;54;20031;-82
2022/10/19 04:31:01;;;;;;;15.90;12.25;;;;;;;14.40;92.40;100771.19;1087778;54;20042;-82
2022/10/19 04:32:06;;;;;;;11.55;9.80;;;;;;;14.49;91.97;100770.25;1087759;54;20082;-84
2022/10/19 04:33:07;;;;;;;12.55;10.85;;;;;;;14.46;91.66;100773.25;1087713;54;20038;-82
2022/10/19 04:34:12;;;;;;;13.68;11.25;;;;;;;14.40;92.06;100771.19;1087792;54;20041;-83
2022/10/19 04:35:13;;;;;;;13.07;11.15;;;;;;;14.41;92.21;100775.56;1087748;54;20058;-84
2022/10/19 04:36:24;;;;;;;14.13;11.50;;;;;;;14.38;91.73;100770.47;1087986;54;20073;-83
2022/10/19 04:37:25;;;;;;;15.02;12.15;;;;;;;14.37;91.92;100774.16;1087705;54;20022;-83
2022/10/19 04:38:30;;;;;;;12.32;11.00;;;;;;;14.31;92.25;100778.31;1087780;54;20026;-86
2022/10/19 04:39:32;;;;;;;13.45;11.73;;;;;;;14.32;92.43;100780.00;1087807;54;20033;-86
2022/10/19 04:40:37;;;;;;;14.77;11.45;;;;;;;14.28;92.27;100775.06;1087785;54;20035;-84
2022/10/19 04:41:39;;;;;;;13.10;11.68;;;;;;;14.25;92.72;100772.69;1087807;54;20053;-83
2022/10/19 04:42:43;;;;;;;12.68;10.98;;;;;;;14.21;93.00;100774.84;1090305;47;20019;-85
2022/10/19 04:43:48;;;;;;;17.65;12.35;;;;;;;14.20;92.95;100774.00;1088111;54;20034;-84
2022/10/19 04:44:52;;;;;;;12.15;9.98;;;;;;;14.24;92.96;100769.16;1088137;54;20014;-82
2022/10/19 04:45:54;;;;;;;12.45;10.07;;;;;;;14.24;92.45;100769.16;1088093;54;20042;-82
2022/10/19 04:46:58;;;;;;;12.95;11.45;;;;;;;14.25;92.21;100772.69;1088152;54;20030;-83
2022/10/19 04:48:00;;;;;;;13.95;11.20;;;;;;;14.27;92.15;100766.16;1088144;54;20027;-82
2022/10/19 04:49:05;;;;;;;11.32;9.90;;;;;;;14.26;92.09;100772.53;1088164;54;20037;-83
2022/10/19 04:50:07;;;;;;;13.35;9.35;;;;;;;14.34;91.48;100780.69;1088149;54;20042;-83
2022/10/19 04:51:13;;;;;;;12.80;9.77;;;;;;;14.38;91.27;100777.72;1088122;54;20030;-81
2022/10/19 04:52:17;;;;;;;11.30;9.75;;;;;;;14.36;91.25;100788.59;1087885;54;20031;-78
2022/10/19 04:53:19;;;;;;;12.07;10.50;;;;;;;14.34;91.54;100783.38;1087810;54;20026;-83
2022/10/19 04:54:23;;;;;;;10.88;9.43;;;;;;;14.36;91.18;100777.84;1088122;54;20017;-85
2022/10/19 04:55:26;;;;;;;12.18;10.20;;;;;;;14.36;91.08;100780.53;1088175;54;20090;-86
2022/10/19 04:56:31;;;;;;;12.50;9.57;;;;;;;14.31;91.34;100782.84;1088200;54;20781;-83
2022/10/19 04:57:38;;;;;;;27.02;9.95;;;;;;;14.27;91.11;100778.75;1088173;54;20037;-85
2022/10/19 04:58:43;;;;;;;11.63;10.00;;;;;;;14.27;92.05;100785.00;1088102;54;20030;-84
2022/10/19 04:59:47;;;;;;;13.25;10.93;;;;;;;14.27;91.51;100778.75;1092844;39;20621;-83
2022/10/19 05:00:51;;;;;;;10.68;9.15;;;;;;;14.28;91.66;100785.81;1088136;54;20030;-85
2022/10/19 05:01:54;;;;;;;12.93;11.00;;;;;;;14.17;92.05;100787.72;1089105;39;20697;-84
2022/10/19 05:02:58;;;;;;;12.35;10.98;;;;;;;14.22;91.80;100787.28;1088123;54;20010;-85
2022/10/19 05:04:08;;;;;;;12.23;10.40;;;;;;;14.23;91.81;100793.50;1088213;54;20031;-84
2022/10/19 05:05:10;;;;;;;10.73;9.05;;;;;;;14.31;91.59;100791.75;1088085;54;20042;-84
2022/10/19 05:06:16;;;;;;;10.75;9.35;;;;;;;14.39;90.93;100788.31;1088135;54;20030;-85
2022/10/19 05:07:18;;;;;;;10.57;8.57;;;;;;;14.48;90.58;100791.94;1088241;54;20050;-85
2022/10/19 05:08:25;;;;;;;9.63;7.80;;;;;;;14.48;90.37;100786.56;1088211;54;20034;-85
2022/10/19 05:09:26;;;;;;;8.63;7.10;;;;;;;14.57;89.96;100790.16;1088074;54;20777;-82
2022/10/19 05:10:32;;;;;;;10.23;7.32;;;;;;;14.61;89.46;100795.09;1088235;54;20053;-84
2022/10/19 05:11:34;;;;;;;9.82;7.97;;;;;;;14.51;89.79;100786.25;1091290;39;20579;-83
2022/10/19 05:12:39;;;;;;;9.02;7.65;;;;;;;14.52;89.59;100782.56;1088196;54;20026;-84
2022/10/19 05:13:42;;;;;;;11.00;8.85;;;;;;;14.45;89.47;100789.53;1088031;54;20038;-85
2022/10/19 05:14:50;;;;;;;10.43;9.27;;;;;;;14.41;89.60;100775.56;1088170;54;20022;-86
2022/10/19 05:15:56;;;;;;;13.02;10.60;;;;;;;14.41;89.73;100775.56;1088261;54;20030;-85
2022/10/19 05:17:00;;;;;;;14.52;11.88;;;;;;;14.38;90.41;100775.84;1094216;31;20829;-85
2022/10/19 05:18:02;;;;;;;17.25;11.93;;;;;;;14.40;90.39;100790.00;1088060;54;20090;-82
2022/10/19 05:19:07;;;;;;;13.32;10.52;;;;;;;14.34;90.34;100779.88;1089847;31;20547;-83
2022/10/19 05:20:10;;;;;;;12.93;10.35;;;;;;;14.31;90.58;100775.59;1088122;54;20046;-83
2022/10/19 05:21:16;;;;;;;14.48;12.20;;;;;;;14.30;90.62;100779.31;1088184;54;20037;-85
2022/10/19 05:22:18;;;;;;;13.45;10.30;;;;;;;14.35;90.58;100781.56;1088052;54;20023;-85
2022/10/19 05:23:25;;;;;;;13.32;10.82;;;;;;;14.29;90.63;100772.25;1092216;39;20725;-84
2022/10/19 05:24:26;;;;;;;13.95;11.93;;;;;;;14.22;91.61;100775.69;1088134;54;20045;-84
2022/10/19 05:25:30;;;;;;;13.82;11.43;;;;;;;14.20;91.31;100774.00;1088951;31;20786;-83
2022/10/19 05:26:32;;;;;;;10.35;8.63;;;;;;;14.27;91.15;100773.38;1087397;54;20042;-83
2022/10/19 05:27:36;;;;;;;9.85;8.70;;;;;;;14.34;90.65;100769.94;1088088;54;20119;-84
2022/10/19 05:28:38;;;;;;;8.98;7.88;;;;;;;14.42;90.13;100769.19;1088153;54;20014;-83
2022/10/19 05:29:42;;;;;;;8.90;7.63;;;;;;;14.46;89.86;100762.47;1088161;54;20042;-87
2022/10/19 05:30:47;;;;;;;9.90;8.02;;;;;;;14.43;89.46;100760.13;1088192;54;20034;-87
2022/10/19 05:31:51;;;;;;;11.32;9.25;;;;;;;14.39;90.12;100766.78;1088162;54;20742;-86
2022/10/19 05:32:53;;;;;;;11.95;10.43;;;;;;;14.30;90.65;100757.81;1088125;54;20038;-84
2022/10/19 05:33:59;;;;;;;12.63;9.88;;;;;;;14.27;90.69;100751.88;1088045;54;20096;-85
2022/10/19 05:35:01;;;;;;;11.25;9.30;;;;;;;14.24;91.17;100755.72;1087915;54;20027;-83
2022/10/19 05:36:14;;;;;;;12.45;9.73;;;;;;;14.23;90.54;100754.00;1088695;46;20036;-83
2022/10/19 05:37:16;;;;;;;10.20;8.32;;;;;;;14.30;90.64;100762.31;1087917;54;20741;-86
2022/10/19 05:38:26;;;;;;;8.93;7.88;;;;;;;14.36;90.28;100756.31;1087862;54;20034;-86
2022/10/19 05:39:31;;;;;;;9.77;8.35;;;;;;;14.38;89.96;100758.88;1088129;54;20342;-88
2022/10/19 05:40:33;;;;;;;9.25;8.25;;;;;;;14.41;89.76;100759.41;1088240;54;20034;-85
2022/10/19 05:41:37;;;;;;;9.63;7.82;;;;;;;14.39;89.36;100755.19;1088143;54;20046;-84
2022/10/19 05:42:41;;;;;;;12.77;8.85;;;;;;;14.34;88.97;100752.97;1088173;54;20038;-86
2022/10/19 05:43:46;;;;;;;10.90;9.35;;;;;;;14.21;89.93;100758.72;1088039;54;20025;-84
2022/10/19 05:44:48;;;;;;;12.68;9.73;;;;;;;14.17;90.41;100757.31;1088259;54;20050;-86
2022/10/19 05:45:55;;;;;;;10.32;9.15;;;;;;;14.17;90.30;100754.63;1095941;31;20796;-85
2022/10/19 05:47:00;;;;;;;9.93;8.68;;;;;;;14.23;90.23;100756.69;1088113;54;20030;-84
2022/10/19 05:48:06;;;;;;;10.18;8.05;;;;;;;14.27;89.67;100752.72;1088159;54;20031;-87
2022/10/19 05:49:12;;;;;;;10.18;8.55;;;;;;;14.29;89.63;100749.88;1088277;54;20026;-83
2022/10/19 05:50:14;;;;;;;9.23;7.65;;;;;;;14.27;89.47;100749.16;1088180;54;20035;-85
2022/10/19 05:51:22;;;;;;;11.77;9.55;;;;;;;14.19;89.59;100750.78;1088069;54;20019;-83
2022/10/19 05:52:23;;;;;;;10.38;8.88;;;;;;;14.18;89.80;100754.47;1088128;54;20011;-83
2022/10/19 05:53:28;;;;;;;11.27;9.10;;;;;;;14.19;89.33;100749.94;1088159;54;20014;-85
2022/10/19 05:54:32;;;;;;;12.30;9.88;;;;;;;14.06;90.05;100752.13;1088573;39;20697;-85
2022/10/19 05:55:34;;;;;;;11.50;9.35;;;;;;;14.05;90.44;100754.00;1088143;54;20045;-83
2022/10/19 05:56:38;;;;;;;11.35;9.43;;;;;;;14.05;90.32;100756.69;1088067;54;20022;-84
2022/10/19 05:57:42;;;;;;;10.35;9.10;;;;;;;13.98;90.79;100750.22;1088076;54;20038;-83
2022/10/19 05:58:47;;;;;;;11.07;9.52;;;;;;;13.99;91.01;100746.50;1088002;54;20100;-84
2022/10/19 05:59:55;;;;;;;11.25;9.18;;;;;;;14.06;90.46;100753.00;1088165;54;20054;-84
2022/10/19 06:01:00;;;;;;;10.05;8.70;;;;;;;14.12;90.38;100755.06;1088083;54;20038;-86
2022/10/19 06:02:05;;;;;;;10.85;9.20;;;;;;;14.11;90.21;100755.25;1088250;54;20030;-87
2022/10/19 06:03:07;;;;;;;11.60;9.20;;;;;;;14.15;90.08;100757.47;1088199;54;20035;-87
2022/10/19 06:04:13;;;;;;;9.18;8.18;;;;;;;14.20;89.59;100757.03;1088161;54;20019;-83
2022/10/19 06:05:15;;;;;;;9.30;7.70;;;;;;;14.24;89.22;100758.41;1088300;54;20058;-84
2022/10/19 06:06:20;;;;;;;9.95;8.75;;;;;;;14.22;89.27;100765.75;1088178;54;20757;-82
2022/10/19 06:07:22;;;;;;;8.93;7.53;;;;;;;14.25;89.23;100764.63;1088224;54;20018;-85
2022/10/19 06:08:27;;;;;;;9.68;7.45;;;;;;;14.32;88.92;100760.34;1088287;54;20058;-85
2022/10/19 06:09:34;;;;;;;11.07;8.25;;;;;;;14.31;88.94;100759.47;1088220;54;20046;-85
2022/10/19 06:10:39;;;;;;;8.70;6.93;;;;;;;14.35;88.97;100768.13;1088172;54;20022;-85
2022/10/19 06:11:42;;;;;;;8.82;6.70;;;;;;;14.41;88.50;100764.81;1091196;39;20674;-85
2022/10/19 06:12:46;;;;;;;8.93;6.55;;;;;;;14.46;88.52;100751.72;1088263;54;20066;-85
2022/10/19 06:13:49;;;;;;;7.70;5.97;;;;;;;14.51;87.90;100753.97;1088104;54;20694;-85
2022/10/19 06:14:54;;;;;;;7.68;6.15;;;;;;;14.49;87.93;100755.97;1088124;54;20042;-85
2022/10/19 06:15:55;;;;;;;7.13;6.13;;;;;;;14.54;88.07;100750.13;1088156;54;20014;-83
2022/10/19 06:17:02;;;;;;;8.63;7.00;;;;;;;14.54;87.48;100758.22;1088399;39;20245;-83
2022/10/19 06:18:04;;;;;;;8.05;7.00;;;;;;;14.55;87.75;100751.84;1088261;54;20051;-84
2022/10/19 06:19:14;;;;;;;8.80;6.95;;;;;;;14.50;86.97;100752.25;1088293;54;20011;-86
2022/10/19 06:20:16;;;;;;;10.25;6.75;;;;;;;14.50;87.73;100747.75;1088366;54;20022;-85
2022/10/19 06:21:30;;;;;;;11.68;9.40;;;;;;;14.29;88.01;100755.25;1088288;54;20030;-84
2022/10/19 06:22:32;;;;;;;11.60;8.82;;;;;;;14.27;89.05;100754.56;1088548;46;20034;-86
2022/10/19 06:23:39;;;;;;;11.88;9.45;;;;;;;14.23;89.03;100761.25;1088110;54;20094;-85
2022/10/19 06:24:41;;;;;;;11.38;9.35;;;;;;;14.22;89.17;100755.00;1091317;46;20031;-83
2022/10/19 06:25:46;;;;;;;11.68;9.90;;;;;;;14.12;89.90;100759.63;1088109;54;20111;-84
2022/10/19 06:26:48;;;;;;;11.20;9.52;;;;;;;14.13;89.71;100764.84;1087805;54;20034;-84
2022/10/19 06:27:57;;;;;;;10.75;9.40;;;;;;;14.08;89.97;100764.44;1088053;54;21123;-84
2022/10/19 06:29:03;;;;;;;10.15;9.02;;;;;;;14.09;90.05;100771.50;1088194;54;20038;-83
2022/10/19 06:30:06;;;;;;;11.30;8.60;;;;;;;14.14;90.05;100768.38;1088111;54;20026;-84
2022/10/19 06:31:12;;;;;;;11.48;9.15;;;;;;;14.17;89.67;100773.44;1088036;54;20038;-83
2022/10/19 06:32:16;;;;;;;11.82;9.02;;;;;;;14.11;90.16;100774.06;1088075;54;20039;-84
2022/10/19 06:33:22;;;;;;;10.25;9.15;;;;;;;14.11;89.93;100768.69;1088033;54;20046;-82
2022/10/19 06:34:23;;;;;;;11.70;9.45;;;;;;;14.10;90.07;100778.56;1088106;54;20037;-85
2022/10/19 06:35:28;;;;;;;12.13;9.07;;;;;;;14.16;90.02;100771.75;1094174;39;20574;-85
2022/10/19 06:36:33;;;;;;;9.15;7.82;;;;;;;14.18;90.07;100775.97;1088100;54;20038;-85
2022/10/19 06:37:34;;;;;;;9.65;8.18;;;;;;;14.22;89.67;100778.38;1089285;46;20034;-83
2022/10/19 06:38:41;;;;;;;9.52;8.35;;;;;;;14.19;89.34;100766.91;1087914;54;20099;-84
2022/10/19 06:39:43;;;;;;;14.70;9.77;;;;;;;14.11;90.48;100769.50;1088044;54;20065;-83
2022/10/19 06:40:47;;;;;;;13.73;9.07;;;;;;;14.16;90.31;100775.31;1091140;39;20649;-81
2022/10/19 06:41:52;;;;;;;10.77;8.23;;;;;;;14.22;89.91;100779.22;1087426;54;20059;-80
2022/10/19 06:42:55;;;;;;;10.45;8.05;;;;;;;14.29;89.74;100768.69;1087528;54;20046;-81
2022/10/19 06:43:59;;;;;;;9.70;8.07;;;;;;;14.29;88.90;100776.75;1087103;54;20034;-80
2022/10/19 06:45:00;;;;;;;13.52;10.07;;;;;;;14.20;89.29;100774.00;1087198;54;20033;-81
2022/10/19 06:46:08;;;;;;;10.85;8.20;;;;;;;14.24;89.31;100773.69;1087552;54;20050;-81
2022/10/19 06:47:09;;;;;;;11.63;9.00;;;;;;;14.24;89.38;100779.06;1087421;54;20829;-81
2022/10/19 06:48:16;;;;;;;11.88;10.35;;;;;;;14.14;89.28;100773.75;1087470;54;20042;-80
2022/10/19 06:49:20;;;;;;;12.23;8.75;;;;;;;14.20;89.61;100776.69;1087810;39;20480;-80
2022/10/19 06:50:22;;;;;;;11.27;9.15;;;;;;;14.23;89.24;100774.69;1087506;54;20034;-79
2022/10/19 06:51:28;;;;;;;11.48;8.60;;;;;;;14.29;88.80;100774.06;1087398;54;20036;-80
2022/10/19 06:52:29;;;;;;;10.98;8.98;;;;;;;14.29;88.68;100772.25;1087469;54;20034;-81
2022/10/19 06:53:33;;;;;;;10.25;8.50;;;;;;;14.37;88.60;100768.78;1087269;54;20022;-79
2022/10/19 06:54:37;;;;;;;10.00;8.27;;;;;;;14.33;88.21;100773.63;1087368;54;20057;-80
2022/10/19 06:55:39;;;;;;;12.35;10.18;;;;;;;14.28;88.60;100780.44;1087092;54;20038;-79
2022/10/19 06:56:43;;;;;;;11.48;10.13;;;;;;;14.26;88.68;100774.41;1087096;54;20026;-79
2022/10/19 06:57:45;;;;;;;12.27;9.30;;;;;;;14.28;88.54;100781.31;1087215;54;20050;-80
2022/10/19 06:58:49;;;;;;;11.15;9.07;;;;;;;14.23;88.83;100782.75;1087226;54;20042;-79
2022/10/19 06:59:50;;;;;;;10.73;9.45;;;;;;;14.29;88.45;100787.53;1087940;54;20042;-81
2022/10/19 07:00:58;;;;;;;11.18;9.32;;;;;;;14.23;88.52;100793.50;1090242;46;20043;-82
2022/10/19 07:02:02;;;;;;;9.50;8.38;;;;;;;14.31;88.64;100789.06;1087710;54;20033;-79
2022/10/19 07:03:04;;;;;;;11.98;9.55;;;;;;;14.26;88.27;100788.69;1087923;46;20038;-81
2022/10/19 07:04:11;;;;;;;11.05;8.65;;;;;;;14.28;88.10;100789.38;1087843;54;20041;-80
2022/10/19 07:05:12;;;;;;;12.13;9.95;;;;;;;14.20;88.63;100782.06;1087733;54;20042;-81
2022/10/19 07:06:17;;;;;;;10.50;8.68;;;;;;;14.29;88.38;100788.38;1087477;54;20031;-80
2022/10/19 07:07:21;;;;;;;12.90;9.30;;;;;;;14.35;88.18;100786.94;1088967;39;20312;-80
2022/10/19 07:08:24;;;;;;;12.10;7.97;;;;;;;14.38;87.42;100785.78;1087507;54;20124;-79
2022/10/19 07:09:28;;;;;;;10.43;8.32;;;;;;;14.31;87.75;100786.38;1087462;54;20037;-80
2022/10/19 07:10:30;;;;;;;10.23;8.23;;;;;;;14.40;87.64;100797.25;1087366;54;20674;-81
2022/10/19 07:11:34;;;;;;;10.05;7.25;;;;;;;14.49;87.16;100789.09;1087438;54;20038;-81
2022/10/19 07:12:38;;;;;;;9.00;7.07;;;;;;;14.39;87.44;100785.63;1087557;54;20063;-81
2022/10/19 07:13:40;;;;;;;9.38;7.05;;;;;;;14.48;87.03;100791.94;1087355;54;20065;-81
2022/10/19 07:14:44;;;;;;;9.15;7.93;;;;;;;14.49;86.52;100791.78;1087454;54;20115;-80
2022/10/19 07:15:46;;;;;;;12.57;8.73;;;;;;;14.50;86.37;100790.78;1087002;54;20030;-80
2022/10/19 07:16:52;;;;;;;9.25;7.60;;;;;;;14.55;85.87;100787.63;1087285;54;20041;-79
2022/10/19 07:17:53;;;;;;;10.35;8.05;;;;;;;14.56;86.27;100793.84;1087274;54;20030;-79
2022/10/19 07:18:57;;;;;;;10.38;7.60;;;;;;;14.53;85.98;100789.63;1087313;54;20686;-80
2022/10/19 07:20:01;;;;;;;10.52;7.22;;;;;;;14.52;85.63;100793.31;1087203;54;20066;-80
2022/10/19 07:21:08;;;;;;;7.93;6.40;;;;;;;14.63;85.59;100794.97;1087540;47;20035;-81
2022/10/19 07:22:12;;;;;;;8.60;5.68;;;;;;;14.70;85.42;100784.44;1087534;54;20615;-81
2022/10/19 07:23:14;;;;;;;6.85;5.50;;;;;;;14.74;84.84;100794.72;1087524;54;20037;-81
2022/10/19 07:24:18;;;;;;;7.68;5.35;;;;;;;14.76;84.87;100790.06;1087392;54;20022;-78
2022/10/19 07:25:19;;;;;;;8.18;6.90;;;;;;;14.62;84.89;100799.47;1087416;54;20049;-80
2022/10/19 07:26:26;;;;;;;7.75;6.50;;;;;;;14.57;84.65;100800.94;1087140;54;20034;-80
2022/10/19 07:27:28;;;;;;;9.45;7.85;;;;;;;14.43;85.06;100795.09;1087160;46;21229;-79
2022/10/19 07:28:33;;;;;;;9.73;7.95;;;;;;;14.41;85.50;100805.16;1086646;54;20050;-80
2022/10/19 07:29:37;;;;;;;9.23;7.25;;;;;;;14.42;85.23;100804.16;1086827;54;20069;-80
2022/10/19 07:30:39;;;;;;;9.43;7.35;;;;;;;14.45;85.12;100800.31;1087023;54;20074;-80
2022/10/19 07:31:43;;;;;;;8.98;7.63;;;;;;;14.50;85.16;100801.56;1087410;54;20042;-80
2022/10/19 07:32:45;;;;;;;7.55;6.43;;;;;;;14.63;84.57;100800.34;1087782;54;20030;-82
2022/10/19 07:33:54;;;;;;;7.60;6.43;;;;;;;14.73;84.02;100808.34;1087855;54;20035;-81
2022/10/19 07:34:58;;;;;;;6.80;5.55;;;;;;;14.82;83.88;100805.59;1087819;54;20041;-81
2022/10/19 07:36:07;;;;;;;7.57;5.82;;;;;;;14.86;83.23;100800.75;1090029;46;20041;-81
2022/10/19 07:37:11;;;;;;;11.10;7.07;;;;;;;14.80;83.49;100801.34;1087905;54;20129;-82
2022/10/19 07:38:14;;;;;;;9.32;7.20;;;;;;;14.73;83.19;100803.84;1088261;46;20039;-81
2022/10/19 07:39:18;;;;;;;10.18;6.97;;;;;;;14.66;83.67;100808.97;1090156;46;20034;-80
2022/10/19 07:40:20;;;;;;;9.00;6.07;;;;;;;14.76;83.52;100803.50;1090929;46;20059;-79
2022/10/19 07:41:27;;;;;;;7.88;6.18;;;;;;;14.81;83.08;100795.84;1087904;47;20732;-80
2022/10/19 07:42:29;;;;;;;9.82;5.55;;;;;;;14.85;83.09;100808.97;1087987;54;20058;-83
2022/10/19 07:43:35;;;;;;;6.95;5.47;;;;;;;14.95;82.76;100809.72;1087882;54;20015;-81
2022/10/19 07:44:36;;;;;;;6.93;5.65;;;;;;;14.97;82.34;100799.66;1087920;54;20358;-80
2022/10/19 07:45:40;;;;;;;7.00;5.40;;;;;;;14.94;82.07;100806.22;1087891;54;20039;-81
2022/10/19 07:46:45;;;;;;;7.97;5.85;;;;;;;15.00;82.23;100798.50;1087792;54;20038;-83
2022/10/19 07:47:46;;;;;;;8.10;5.40;;;;;;;15.00;82.26;100810.13;1087962;54;20030;-80
2022/10/19 07:48:51;;;;;;;6.68;4.97;;;;;;;15.08;81.54;100806.63;1089257;39;20539;-81
2022/10/19 07:49:58;;;;;;;7.00;5.53;;;;;;;15.07;81.65;100803.13;1087808;54;20038;-78
2022/10/19 07:51:03;;;;;;;9.35;7.50;;;;;;;14.90;81.65;100801.28;1087791;54;20781;-80
2022/10/19 07:52:10;;;;;;;8.57;6.95;;;;;;;14.94;81.95;100802.66;1087671;54;20061;-80
2022/10/19 07:53:11;;;;;;;8.25;6.20;;;;;;;14.92;82.10;100810.88;1087685;54;20065;-80
2022/10/19 07:54:23;;;;;;;7.95;5.80;;;;;;;15.00;81.62;100812.81;1087753;54;20052;-82
2022/10/19 07:55:27;;;;;;;7.97;5.22;;;;;;;15.02;81.82;100821.56;1091458;39;20185;-81
2022/10/19 07:56:32;;;;;;;6.38;4.97;;;;;;;15.05;81.36;100810.50;1087585;54;20042;-82
2022/10/19 07:57:37;;;;;;;7.90;5.38;;;;;;;15.11;81.08;100812.56;1087964;47;20042;-82
2022/10/19 07:58:41;;;;;;;7.45;5.15;;;;;;;15.18;80.99;100820.84;1087415;54;20031;-81
2022/10/19 07:59:45;;;;;;;7.07;5.45;;;;;;;15.12;80.55;100811.56;1087132;54;20026;-80
2022/10/19 08:00:53;;;;;;;7.22;5.28;;;;;;;15.09;80.97;100817.28;1087291;54;20050;-79
2022/10/19 08:02:01;;;;;;;6.63;5.18;;;;;;;15.15;80.48;100810.41;1086981;54;20035;-81
2022/10/19 08:03:05;;;;;;;8.48;5.20;;;;;;;15.12;80.92;100810.72;1087196;54;20035;-80
2022/10/19 08:04:09;;;;;;;7.38;5.78;;;;;;;15.15;80.50;100802.34;1087323;54;20078;-81
2022/10/19 08:05:11;;;;;;;6.15;4.55;;;;;;;15.23;80.16;100804.22;1087088;54;20060;-81
2022/10/19 08:06:18;;;;;;;7.90;6.40;;;;;;;15.09;79.71;100811.03;1087173;54;20057;-80
2022/10/19 08:07:28;;;;;;;7.28;5.80;;;;;;;15.01;80.01;100806.44;1086636;54;20054;-81
2022/10/19 08:08:30;;;;;;;8.18;5.82;;;;;;;15.03;80.70;100807.09;1087019;54;20073;-80
2022/10/19 08:09:34;;;;;;;9.82;5.97;;;;;;;15.05;80.42;100799.72;1087171;54;20023;-82
2022/10/19 08:10:38;;;;;;;6.60;5.60;;;;;;;15.00;80.71;100801.19;1087063;54;20038;-81
2022/10/19 08:11:40;;;;;;;6.80;5.13;;;;;;;15.07;80.80;100807.63;1091830;39;21126;-82
2022/10/19 08:12:45;;;;;;;6.57;5.60;;;;;;;15.05;80.75;100807.81;1087446;54;20047;-84
2022/10/19 08:13:46;;;;;;;6.70;5.45;;;;;;;15.04;80.45;100814.19;1087817;54;20015;-83
2022/10/19 08:14:50;;;;;;;7.72;6.65;;;;;;;14.95;80.83;100810.59;1087782;54;20030;-84
2022/10/19 08:16:02;;;;;;;7.82;6.50;;;;;;;14.89;80.74;100810.34;1087837;54;20034;-83
2022/10/19 08:17:06;;;;;;;8.00;6.82;;;;;;;14.89;81.30;100805.81;1087993;39;20524;-84
2022/10/19 08:18:13;;;;;;;7.20;5.85;;;;;;;14.96;80.89;100800.66;1087888;54;20737;-82
2022/10/19 08:19:18;;;;;;;8.27;5.60;;;;;;;14.99;81.20;100811.13;1088159;54;20038;-82
2022/10/19 08:20:20;;;;;;;6.43;5.43;;;;;;;15.09;80.53;100806.50;1088063;54;20034;-83
2022/10/19 08:21:24;;;;;;;9.45;6.40;;;;;;;15.08;80.44;100809.34;1088104;54;20120;-84